sensor_id;sensor_type;location;lat;lon;timestamp;P1;durP1;ratioP1;P2;durP2;ratioP2
9160;SDS011;4615;51.340;8.288;2023-02-28T00:01:37;6.55;;;5.20;;
9160;SDS011;4615;51.340;8.288;2023-02-28T00:04:04;5.90;;;5.25;;
9160;SDS011;4615;51.340;8.288;2023-02-28T00:06:31;6.22;;;4.85;;
9160;SDS011;4615;51.340;8.288;2023-02-28T00:08:57;6.25;;;4.07;;
9160;SDS011;4615;51.340;8.288;2023-02-28T00:11:25;5.03;;;4.35;;
9160;SDS011;4615;51.340;8.288;2023-02-28T00:13:51;6.88;;;4.82;;
9160;SDS011;4615;51.340;8.288;2023-02-28T00:16:18;5.28;;;4.30;;
9160;SDS011;4615;51.340;8.288;2023-02-28T00:18:45;7.38;;;5.20;;
9160;SDS011;4615;51.340;8.288;2023-02-28T00:21:12;6.50;;;4.93;;
9160;SDS011;4615;51.340;8.288;2023-02-28T00:23:38;6.32;;;5.00;;
9160;SDS011;4615;51.340;8.288;2023-02-28T00:26:05;6.68;;;4.88;;
9160;SDS011;4615;51.340;8.288;2023-02-28T00:28:33;8.43;;;5.90;;
9160;SDS011;4615;51.340;8.288;2023-02-28T00:30:59;6.95;;;5.43;;
9160;SDS011;4615;51.340;8.288;2023-02-28T00:33:26;7.22;;;4.95;;
9160;SDS011;4615;51.340;8.288;2023-02-28T00:36:00;6.85;;;5.35;;
9160;SDS011;4615;51.340;8.288;2023-02-28T00:38:26;6.67;;;5.10;;
9160;SDS011;4615;51.340;8.288;2023-02-28T00:40:53;6.65;;;5.07;;
9160;SDS011;4615;51.340;8.288;2023-02-28T00:43:19;6.50;;;4.93;;
9160;SDS011;4615;51.340;8.288;2023-02-28T00:45:47;6.15;;;4.75;;
9160;SDS011;4615;51.340;8.288;2023-02-28T00:48:13;5.28;;;4.50;;
9160;SDS011;4615;51.340;8.288;2023-02-28T00:50:41;6.43;;;4.63;;
9160;SDS011;4615;51.340;8.288;2023-02-28T00:53:07;6.70;;;4.72;;
9160;SDS011;4615;51.340;8.288;2023-02-28T00:55:34;7.72;;;4.75;;
9160;SDS011;4615;51.340;8.288;2023-02-28T00:58:00;6.28;;;5.03;;
9160;SDS011;4615;51.340;8.288;2023-02-28T01:00:26;6.55;;;4.93;;
9160;SDS011;4615;51.340;8.288;2023-02-28T01:02:54;6.95;;;4.95;;
9160;SDS011;4615;51.340;8.288;2023-02-28T01:05:21;5.15;;;4.28;;
9160;SDS011;4615;51.340;8.288;2023-02-28T01:07:47;5.80;;;4.27;;
9160;SDS011;4615;51.340;8.288;2023-02-28T01:10:13;5.93;;;4.15;;
9160;SDS011;4615;51.340;8.288;2023-02-28T01:12:40;4.50;;;3.80;;
9160;SDS011;4615;51.340;8.288;2023-02-28T01:15:06;4.40;;;3.80;;
9160;SDS011;4615;51.340;8.288;2023-02-28T01:17:35;4.63;;;3.70;;
9160;SDS011;4615;51.340;8.288;2023-02-28T01:20:03;4.53;;;3.40;;
9160;SDS011;4615;51.340;8.288;2023-02-28T01:22:30;3.92;;;3.53;;
9160;SDS011;4615;51.340;8.288;2023-02-28T01:24:56;4.18;;;3.58;;
9160;SDS011;4615;51.340;8.288;2023-02-28T01:27:23;4.25;;;3.70;;
9160;SDS011;4615;51.340;8.288;2023-02-28T01:29:50;4.55;;;3.63;;
9160;SDS011;4615;51.340;8.288;2023-02-28T01:32:16;4.00;;;3.60;;
9160;SDS011;4615;51.340;8.288;2023-02-28T01:34:43;4.63;;;3.70;;
9160;SDS011;4615;51.340;8.288;2023-02-28T01:37:10;4.07;;;3.38;;
9160;SDS011;4615;51.340;8.288;2023-02-28T01:39:37;3.67;;;3.05;;
9160;SDS011;4615;51.340;8.288;2023-02-28T01:42:03;3.53;;;3.20;;
9160;SDS011;4615;51.340;8.288;2023-02-28T01:47:14;3.70;;;3.30;;
9160;SDS011;4615;51.340;8.288;2023-02-28T01:49:41;3.83;;;3.15;;
9160;SDS011;4615;51.340;8.288;2023-02-28T01:52:07;4.40;;;3.25;;
9160;SDS011;4615;51.340;8.288;2023-02-28T01:54:44;3.47;;;3.03;;
9160;SDS011;4615;51.340;8.288;2023-02-28T01:57:11;3.30;;;2.90;;
9160;SDS011;4615;51.340;8.288;2023-02-28T01:59:42;3.85;;;3.10;;
9160;SDS011;4615;51.340;8.288;2023-02-28T02:02:11;3.85;;;3.25;;
9160;SDS011;4615;51.340;8.288;2023-02-28T02:04:39;4.20;;;3.00;;
9160;SDS011;4615;51.340;8.288;2023-02-28T02:07:07;3.83;;;3.38;;
9160;SDS011;4615;51.340;8.288;2023-02-28T02:09:35;3.50;;;2.80;;
9160;SDS011;4615;51.340;8.288;2023-02-28T02:12:03;5.47;;;3.20;;
9160;SDS011;4615;51.340;8.288;2023-02-28T02:14:40;3.97;;;3.00;;
9160;SDS011;4615;51.340;8.288;2023-02-28T02:17:15;3.50;;;3.20;;
9160;SDS011;4615;51.340;8.288;2023-02-28T02:22:42;3.10;;;2.80;;
9160;SDS011;4615;51.340;8.288;2023-02-28T02:25:16;4.68;;;2.90;;
9160;SDS011;4615;51.340;8.288;2023-02-28T02:27:57;3.35;;;3.00;;
9160;SDS011;4615;51.340;8.288;2023-02-28T02:33:15;4.57;;;2.92;;
9160;SDS011;4615;51.340;8.288;2023-02-28T02:35:49;3.60;;;2.93;;
9160;SDS011;4615;51.340;8.288;2023-02-28T02:38:18;3.95;;;3.00;;
9160;SDS011;4615;51.340;8.288;2023-02-28T02:40:47;4.20;;;2.97;;
9160;SDS011;4615;51.340;8.288;2023-02-28T02:43:18;3.50;;;3.10;;
9160;SDS011;4615;51.340;8.288;2023-02-28T02:45:46;3.40;;;2.97;;
9160;SDS011;4615;51.340;8.288;2023-02-28T02:48:15;3.95;;;3.25;;
9160;SDS011;4615;51.340;8.288;2023-02-28T02:50:43;3.92;;;3.40;;
9160;SDS011;4615;51.340;8.288;2023-02-28T02:53:12;4.63;;;3.40;;
9160;SDS011;4615;51.340;8.288;2023-02-28T02:55:41;3.80;;;3.00;;
9160;SDS011;4615;51.340;8.288;2023-02-28T02:58:10;3.40;;;3.03;;
9160;SDS011;4615;51.340;8.288;2023-02-28T03:00:38;3.40;;;3.10;;
9160;SDS011;4615;51.340;8.288;2023-02-28T03:03:06;2.92;;;2.63;;
9160;SDS011;4615;51.340;8.288;2023-02-28T03:05:34;3.30;;;3.00;;
9160;SDS011;4615;51.340;8.288;2023-02-28T03:08:02;3.60;;;2.80;;
9160;SDS011;4615;51.340;8.288;2023-02-28T03:10:36;3.15;;;2.67;;
9160;SDS011;4615;51.340;8.288;2023-02-28T03:13:06;3.60;;;2.80;;
9160;SDS011;4615;51.340;8.288;2023-02-28T03:15:36;2.83;;;2.60;;
9160;SDS011;4615;51.340;8.288;2023-02-28T03:18:06;3.38;;;2.47;;
9160;SDS011;4615;51.340;8.288;2023-02-28T03:20:35;2.95;;;2.40;;
9160;SDS011;4615;51.340;8.288;2023-02-28T03:23:07;2.80;;;2.30;;
9160;SDS011;4615;51.340;8.288;2023-02-28T03:25:40;2.85;;;2.40;;
9160;SDS011;4615;51.340;8.288;2023-02-28T03:28:08;2.85;;;2.40;;
9160;SDS011;4615;51.340;8.288;2023-02-28T03:30:41;2.50;;;2.30;;
9160;SDS011;4615;51.340;8.288;2023-02-28T03:33:10;3.00;;;2.58;;
9160;SDS011;4615;51.340;8.288;2023-02-28T03:35:39;2.88;;;2.40;;
9160;SDS011;4615;51.340;8.288;2023-02-28T03:38:07;3.92;;;2.60;;
9160;SDS011;4615;51.340;8.288;2023-02-28T03:40:34;4.18;;;2.75;;
9160;SDS011;4615;51.340;8.288;2023-02-28T03:43:06;3.03;;;2.72;;
9160;SDS011;4615;51.340;8.288;2023-02-28T03:45:35;3.10;;;2.60;;
9160;SDS011;4615;51.340;8.288;2023-02-28T03:48:03;3.33;;;2.90;;
9160;SDS011;4615;51.340;8.288;2023-02-28T03:50:33;3.10;;;2.90;;
9160;SDS011;4615;51.340;8.288;2023-02-28T03:53:01;3.40;;;3.03;;
9160;SDS011;4615;51.340;8.288;2023-02-28T03:55:30;3.50;;;3.03;;
9160;SDS011;4615;51.340;8.288;2023-02-28T03:57:59;3.95;;;2.70;;
9160;SDS011;4615;51.340;8.288;2023-02-28T04:00:31;3.38;;;3.03;;
9160;SDS011;4615;51.340;8.288;2023-02-28T04:03:00;4.97;;;3.35;;
9160;SDS011;4615;51.340;8.288;2023-02-28T04:05:27;4.40;;;3.80;;
9160;SDS011;4615;51.340;8.288;2023-02-28T04:07:53;3.95;;;3.55;;
9160;SDS011;4615;51.340;8.288;2023-02-28T04:10:20;5.35;;;3.80;;
9160;SDS011;4615;51.340;8.288;2023-02-28T04:12:46;4.43;;;3.90;;
9160;SDS011;4615;51.340;8.288;2023-02-28T04:15:13;3.78;;;3.47;;
9160;SDS011;4615;51.340;8.288;2023-02-28T04:17:41;4.32;;;3.92;;
9160;SDS011;4615;51.340;8.288;2023-02-28T04:20:07;3.60;;;3.30;;
9160;SDS011;4615;51.340;8.288;2023-02-28T04:22:35;3.85;;;3.30;;
9160;SDS011;4615;51.340;8.288;2023-02-28T04:25:02;3.15;;;2.85;;
9160;SDS011;4615;51.340;8.288;2023-02-28T04:27:29;4.40;;;3.20;;
9160;SDS011;4615;51.340;8.288;2023-02-28T04:29:55;3.70;;;3.25;;
9160;SDS011;4615;51.340;8.288;2023-02-28T04:32:22;3.75;;;3.20;;
9160;SDS011;4615;51.340;8.288;2023-02-28T04:34:49;3.38;;;2.90;;
9160;SDS011;4615;51.340;8.288;2023-02-28T04:37:16;3.10;;;2.80;;
9160;SDS011;4615;51.340;8.288;2023-02-28T04:39:42;2.92;;;2.72;;
9160;SDS011;4615;51.340;8.288;2023-02-28T04:42:09;3.00;;;2.80;;
9160;SDS011;4615;51.340;8.288;2023-02-28T04:44:36;2.90;;;2.70;;
9160;SDS011;4615;51.340;8.288;2023-02-28T04:47:02;3.08;;;2.78;;
9160;SDS011;4615;51.340;8.288;2023-02-28T04:49:29;3.10;;;2.80;;
9160;SDS011;4615;51.340;8.288;2023-02-28T04:51:56;3.40;;;2.97;;
9160;SDS011;4615;51.340;8.288;2023-02-28T04:54:23;4.05;;;3.03;;
9160;SDS011;4615;51.340;8.288;2023-02-28T04:56:49;3.28;;;2.90;;
9160;SDS011;4615;51.340;8.288;2023-02-28T04:59:16;3.08;;;2.78;;
9160;SDS011;4615;51.340;8.288;2023-02-28T05:01:45;3.30;;;2.95;;
9160;SDS011;4615;51.340;8.288;2023-02-28T05:04:11;3.00;;;2.80;;
9160;SDS011;4615;51.340;8.288;2023-02-28T05:06:38;3.03;;;2.70;;
9160;SDS011;4615;51.340;8.288;2023-02-28T05:09:05;3.90;;;2.75;;
9160;SDS011;4615;51.340;8.288;2023-02-28T05:11:33;3.42;;;2.80;;
9160;SDS011;4615;51.340;8.288;2023-02-28T05:14:00;3.37;;;2.60;;
9160;SDS011;4615;51.340;8.288;2023-02-28T05:16:26;3.38;;;2.92;;
9160;SDS011;4615;51.340;8.288;2023-02-28T05:18:53;4.88;;;3.70;;
9160;SDS011;4615;51.340;8.288;2023-02-28T05:21:25;4.10;;;3.70;;
9160;SDS011;4615;51.340;8.288;2023-02-28T05:23:52;5.47;;;4.10;;
9160;SDS011;4615;51.340;8.288;2023-02-28T05:26:20;4.47;;;4.00;;
9160;SDS011;4615;51.340;8.288;2023-02-28T05:28:46;4.57;;;4.18;;
9160;SDS011;4615;51.340;8.288;2023-02-28T05:31:13;5.07;;;4.20;;
9160;SDS011;4615;51.340;8.288;2023-02-28T05:33:40;4.37;;;3.97;;
9160;SDS011;4615;51.340;8.288;2023-02-28T05:36:07;4.43;;;4.03;;
9160;SDS011;4615;51.340;8.288;2023-02-28T05:38:33;4.18;;;3.78;;
9160;SDS011;4615;51.340;8.288;2023-02-28T05:41:00;4.43;;;4.03;;
9160;SDS011;4615;51.340;8.288;2023-02-28T05:43:27;5.00;;;4.28;;
9160;SDS011;4615;51.340;8.288;2023-02-28T05:45:54;5.63;;;4.70;;
9160;SDS011;4615;51.340;8.288;2023-02-28T05:48:20;4.90;;;4.30;;
9160;SDS011;4615;51.340;8.288;2023-02-28T05:50:46;4.90;;;4.40;;
9160;SDS011;4615;51.340;8.288;2023-02-28T05:53:13;5.47;;;3.90;;
9160;SDS011;4615;51.340;8.288;2023-02-28T05:55:40;5.32;;;4.78;;
9160;SDS011;4615;51.340;8.288;2023-02-28T05:58:07;5.50;;;4.90;;
9160;SDS011;4615;51.340;8.288;2023-02-28T06:00:34;6.50;;;5.10;;
9160;SDS011;4615;51.340;8.288;2023-02-28T06:03:01;5.85;;;5.03;;
9160;SDS011;4615;51.340;8.288;2023-02-28T06:05:27;7.97;;;6.53;;
9160;SDS011;4615;51.340;8.288;2023-02-28T06:07:54;9.60;;;6.45;;
9160;SDS011;4615;51.340;8.288;2023-02-28T06:10:20;8.48;;;6.75;;
9160;SDS011;4615;51.340;8.288;2023-02-28T06:12:47;7.53;;;6.55;;
9160;SDS011;4615;51.340;8.288;2023-02-28T06:15:13;9.07;;;7.25;;
9160;SDS011;4615;51.340;8.288;2023-02-28T06:17:41;10.15;;;9.05;;
9160;SDS011;4615;51.340;8.288;2023-02-28T06:20:08;11.07;;;8.65;;
9160;SDS011;4615;51.340;8.288;2023-02-28T06:22:35;10.13;;;6.93;;
9160;SDS011;4615;51.340;8.288;2023-02-28T06:25:02;9.63;;;6.75;;
9160;SDS011;4615;51.340;8.288;2023-02-28T06:27:28;8.70;;;7.13;;
9160;SDS011;4615;51.340;8.288;2023-02-28T06:29:55;8.20;;;6.95;;
9160;SDS011;4615;51.340;8.288;2023-02-28T06:32:21;7.25;;;6.45;;
9160;SDS011;4615;51.340;8.288;2023-02-28T06:34:49;7.78;;;6.57;;
9160;SDS011;4615;51.340;8.288;2023-02-28T06:37:16;7.38;;;6.57;;
9160;SDS011;4615;51.340;8.288;2023-02-28T06:39:43;9.13;;;6.90;;
9160;SDS011;4615;51.340;8.288;2023-02-28T06:42:09;9.80;;;7.50;;
9160;SDS011;4615;51.340;8.288;2023-02-28T06:44:35;8.73;;;7.38;;
9160;SDS011;4615;51.340;8.288;2023-02-28T06:47:02;8.40;;;7.05;;
9160;SDS011;4615;51.340;8.288;2023-02-28T06:49:29;8.75;;;7.43;;
9160;SDS011;4615;51.340;8.288;2023-02-28T06:51:57;8.00;;;7.20;;
9160;SDS011;4615;51.340;8.288;2023-02-28T06:54:23;9.63;;;6.93;;
9160;SDS011;4615;51.340;8.288;2023-02-28T06:56:50;8.40;;;6.70;;
9160;SDS011;4615;51.340;8.288;2023-02-28T06:59:17;8.27;;;7.22;;
9160;SDS011;4615;51.340;8.288;2023-02-28T07:01:43;9.68;;;7.35;;
9160;SDS011;4615;51.340;8.288;2023-02-28T07:04:10;7.38;;;6.57;;
9160;SDS011;4615;51.340;8.288;2023-02-28T07:06:38;8.07;;;6.40;;
9160;SDS011;4615;51.340;8.288;2023-02-28T07:09:06;8.32;;;6.45;;
9160;SDS011;4615;51.340;8.288;2023-02-28T07:11:33;7.53;;;6.50;;
9160;SDS011;4615;51.340;8.288;2023-02-28T07:13:59;7.35;;;6.03;;
9160;SDS011;4615;51.340;8.288;2023-02-28T07:16:26;8.25;;;6.82;;
9160;SDS011;4615;51.340;8.288;2023-02-28T07:18:52;9.77;;;6.88;;
9160;SDS011;4615;51.340;8.288;2023-02-28T07:21:21;7.22;;;6.40;;
9160;SDS011;4615;51.340;8.288;2023-02-28T07:23:47;7.57;;;6.15;;
9160;SDS011;4615;51.340;8.288;2023-02-28T07:26:16;7.50;;;6.20;;
9160;SDS011;4615;51.340;8.288;2023-02-28T07:28:43;8.90;;;7.60;;
9160;SDS011;4615;51.340;8.288;2023-02-28T07:31:10;9.48;;;7.80;;
9160;SDS011;4615;51.340;8.288;2023-02-28T07:33:38;9.70;;;8.68;;
9160;SDS011;4615;51.340;8.288;2023-02-28T07:36:05;10.27;;;9.20;;
9160;SDS011;4615;51.340;8.288;2023-02-28T07:38:33;10.70;;;8.68;;
9160;SDS011;4615;51.340;8.288;2023-02-28T07:40:59;13.70;;;8.95;;
9160;SDS011;4615;51.340;8.288;2023-02-28T07:43:30;14.05;;;9.07;;
9160;SDS011;4615;51.340;8.288;2023-02-28T07:46:00;11.45;;;8.60;;
9160;SDS011;4615;51.340;8.288;2023-02-28T07:48:27;10.73;;;8.48;;
9160;SDS011;4615;51.340;8.288;2023-02-28T07:50:54;12.15;;;9.82;;
9160;SDS011;4615;51.340;8.288;2023-02-28T07:53:21;12.32;;;9.77;;
9160;SDS011;4615;51.340;8.288;2023-02-28T07:55:47;11.57;;;9.68;;
9160;SDS011;4615;51.340;8.288;2023-02-28T07:58:14;12.20;;;8.90;;
9160;SDS011;4615;51.340;8.288;2023-02-28T08:00:42;12.68;;;9.50;;
9160;SDS011;4615;51.340;8.288;2023-02-28T08:03:08;12.10;;;10.02;;
9160;SDS011;4615;51.340;8.288;2023-02-28T08:05:37;12.93;;;8.63;;
9160;SDS011;4615;51.340;8.288;2023-02-28T08:08:04;12.27;;;7.75;;
9160;SDS011;4615;51.340;8.288;2023-02-28T08:10:31;8.35;;;6.85;;
9160;SDS011;4615;51.340;8.288;2023-02-28T08:12:57;9.70;;;7.40;;
9160;SDS011;4615;51.340;8.288;2023-02-28T08:15:24;9.38;;;5.82;;
9160;SDS011;4615;51.340;8.288;2023-02-28T08:17:52;6.50;;;4.68;;
9160;SDS011;4615;51.340;8.288;2023-02-28T08:20:18;6.10;;;4.77;;
9160;SDS011;4615;51.340;8.288;2023-02-28T08:22:45;9.85;;;6.60;;
9160;SDS011;4615;51.340;8.288;2023-02-28T08:25:11;6.38;;;5.22;;
9160;SDS011;4615;51.340;8.288;2023-02-28T08:27:38;7.13;;;6.00;;
9160;SDS011;4615;51.340;8.288;2023-02-28T08:30:05;7.13;;;4.72;;
9160;SDS011;4615;51.340;8.288;2023-02-28T08:32:31;7.60;;;5.27;;
9160;SDS011;4615;51.340;8.288;2023-02-28T08:34:59;7.63;;;4.88;;
9160;SDS011;4615;51.340;8.288;2023-02-28T08:37:26;5.78;;;4.60;;
9160;SDS011;4615;51.340;8.288;2023-02-28T08:39:53;6.57;;;4.78;;
9160;SDS011;4615;51.340;8.288;2023-02-28T08:42:19;5.53;;;3.95;;
9160;SDS011;4615;51.340;8.288;2023-02-28T08:44:46;7.13;;;4.40;;
9160;SDS011;4615;51.340;8.288;2023-02-28T08:47:12;4.97;;;4.28;;
9160;SDS011;4615;51.340;8.288;2023-02-28T08:49:38;6.78;;;4.55;;
9160;SDS011;4615;51.340;8.288;2023-02-28T08:52:06;5.85;;;4.00;;
9160;SDS011;4615;51.340;8.288;2023-02-28T08:54:33;4.53;;;3.60;;
9160;SDS011;4615;51.340;8.288;2023-02-28T08:56:59;6.05;;;3.40;;
9160;SDS011;4615;51.340;8.288;2023-02-28T08:59:25;4.22;;;3.10;;
9160;SDS011;4615;51.340;8.288;2023-02-28T09:01:52;4.00;;;3.10;;
9160;SDS011;4615;51.340;8.288;2023-02-28T09:04:18;4.47;;;2.90;;
9160;SDS011;4615;51.340;8.288;2023-02-28T09:06:45;3.10;;;2.80;;
9160;SDS011;4615;51.340;8.288;2023-02-28T09:09:12;2.90;;;2.60;;
9160;SDS011;4615;51.340;8.288;2023-02-28T09:11:39;3.92;;;2.67;;
9160;SDS011;4615;51.340;8.288;2023-02-28T09:14:05;2.53;;;2.30;;
9160;SDS011;4615;51.340;8.288;2023-02-28T09:16:32;3.00;;;1.95;;
9160;SDS011;4615;51.340;8.288;2023-02-28T09:18:58;2.80;;;2.22;;
9160;SDS011;4615;51.340;8.288;2023-02-28T09:21:25;3.05;;;2.40;;
9160;SDS011;4615;51.340;8.288;2023-02-28T09:23:52;2.97;;;2.25;;
9160;SDS011;4615;51.340;8.288;2023-02-28T09:26:20;2.90;;;2.00;;
9160;SDS011;4615;51.340;8.288;2023-02-28T09:28:47;2.13;;;1.92;;
9160;SDS011;4615;51.340;8.288;2023-02-28T09:31:14;2.47;;;1.92;;
9160;SDS011;4615;51.340;8.288;2023-02-28T09:33:41;2.90;;;2.10;;
9160;SDS011;4615;51.340;8.288;2023-02-28T09:36:07;2.33;;;2.10;;
9160;SDS011;4615;51.340;8.288;2023-02-28T09:38:34;3.50;;;2.55;;
9160;SDS011;4615;51.340;8.288;2023-02-28T09:41:01;3.65;;;2.50;;
9160;SDS011;4615;51.340;8.288;2023-02-28T09:43:29;2.80;;;2.33;;
9160;SDS011;4615;51.340;8.288;2023-02-28T09:45:59;3.05;;;2.30;;
9160;SDS011;4615;51.340;8.288;2023-02-28T09:48:28;6.15;;;4.07;;
9160;SDS011;4615;51.340;8.288;2023-02-28T09:51:02;3.40;;;3.10;;
9160;SDS011;4615;51.340;8.288;2023-02-28T09:53:29;2.58;;;2.13;;
9160;SDS011;4615;51.340;8.288;2023-02-28T09:55:59;2.30;;;2.03;;
9160;SDS011;4615;51.340;8.288;2023-02-28T09:58:30;2.85;;;2.15;;
9160;SDS011;4615;51.340;8.288;2023-02-28T10:00:59;2.50;;;2.20;;
9160;SDS011;4615;51.340;8.288;2023-02-28T10:03:30;2.92;;;2.10;;
9160;SDS011;4615;51.340;8.288;2023-02-28T10:05:59;2.70;;;2.30;;
9160;SDS011;4615;51.340;8.288;2023-02-28T10:08:30;2.65;;;2.08;;
9160;SDS011;4615;51.340;8.288;2023-02-28T10:10:58;2.65;;;2.30;;
9160;SDS011;4615;51.340;8.288;2023-02-28T10:13:27;2.30;;;2.00;;
9160;SDS011;4615;51.340;8.288;2023-02-28T10:15:59;3.13;;;2.30;;
9160;SDS011;4615;51.340;8.288;2023-02-28T10:18:29;3.35;;;2.40;;
9160;SDS011;4615;51.340;8.288;2023-02-28T10:20:56;3.55;;;3.22;;
9160;SDS011;4615;51.340;8.288;2023-02-28T10:23:26;2.83;;;2.63;;
9160;SDS011;4615;51.340;8.288;2023-02-28T10:25:54;2.63;;;2.28;;
9160;SDS011;4615;51.340;8.288;2023-02-28T10:28:21;2.33;;;2.10;;
9160;SDS011;4615;51.340;8.288;2023-02-28T10:30:48;2.80;;;2.20;;
9160;SDS011;4615;51.340;8.288;2023-02-28T10:33:18;2.40;;;2.20;;
9160;SDS011;4615;51.340;8.288;2023-02-28T10:35:45;2.63;;;2.30;;
9160;SDS011;4615;51.340;8.288;2023-02-28T10:38:15;3.30;;;2.40;;
9160;SDS011;4615;51.340;8.288;2023-02-28T10:40:41;6.70;;;2.75;;
9160;SDS011;4615;51.340;8.288;2023-02-28T10:43:17;2.45;;;2.25;;
9160;SDS011;4615;51.340;8.288;2023-02-28T10:45:51;2.50;;;2.30;;
9160;SDS011;4615;51.340;8.288;2023-02-28T10:51:02;2.70;;;2.33;;
9160;SDS011;4615;51.340;8.288;2023-02-28T10:53:40;2.55;;;2.30;;
9160;SDS011;4615;51.340;8.288;2023-02-28T10:56:15;2.55;;;2.35;;
9160;SDS011;4615;51.340;8.288;2023-02-28T10:58:46;2.85;;;2.60;;
9160;SDS011;4615;51.340;8.288;2023-02-28T11:01:14;2.55;;;2.35;;
9160;SDS011;4615;51.340;8.288;2023-02-28T11:03:40;2.75;;;2.40;;
9160;SDS011;4615;51.340;8.288;2023-02-28T11:06:12;2.45;;;2.22;;
9160;SDS011;4615;51.340;8.288;2023-02-28T11:08:43;3.10;;;2.60;;
9160;SDS011;4615;51.340;8.288;2023-02-28T11:11:10;2.55;;;2.30;;
9160;SDS011;4615;51.340;8.288;2023-02-28T11:13:36;2.70;;;2.40;;
9160;SDS011;4615;51.340;8.288;2023-02-28T11:16:04;2.50;;;2.30;;
9160;SDS011;4615;51.340;8.288;2023-02-28T11:18:33;2.33;;;2.10;;
9160;SDS011;4615;51.340;8.288;2023-02-28T11:21:02;3.25;;;2.35;;
9160;SDS011;4615;51.340;8.288;2023-02-28T11:23:30;2.65;;;2.40;;
9160;SDS011;4615;51.340;8.288;2023-02-28T11:25:59;6.32;;;2.53;;
9160;SDS011;4615;51.340;8.288;2023-02-28T11:28:27;4.20;;;2.55;;
9160;SDS011;4615;51.340;8.288;2023-02-28T11:31:00;4.18;;;3.78;;
9160;SDS011;4615;51.340;8.288;2023-02-28T11:33:28;2.72;;;2.53;;
9160;SDS011;4615;51.340;8.288;2023-02-28T11:35:55;2.72;;;2.40;;
9160;SDS011;4615;51.340;8.288;2023-02-28T11:38:23;2.50;;;2.30;;
9160;SDS011;4615;51.340;8.288;2023-02-28T11:40:54;2.58;;;2.30;;
9160;SDS011;4615;51.340;8.288;2023-02-28T11:43:32;3.65;;;2.72;;
9160;SDS011;4615;51.340;8.288;2023-02-28T11:46:08;4.30;;;2.40;;
9160;SDS011;4615;51.340;8.288;2023-02-28T11:48:39;3.00;;;2.50;;
9160;SDS011;4615;51.340;8.288;2023-02-28T11:51:10;3.85;;;2.78;;
9160;SDS011;4615;51.340;8.288;2023-02-28T11:53:43;2.97;;;2.67;;
9160;SDS011;4615;51.340;8.288;2023-02-28T11:56:16;2.70;;;2.50;;
9160;SDS011;4615;51.340;8.288;2023-02-28T11:58:48;3.20;;;2.90;;
9160;SDS011;4615;51.340;8.288;2023-02-28T12:01:23;2.88;;;2.67;;
9160;SDS011;4615;51.340;8.288;2023-02-28T12:03:56;3.78;;;3.38;;
9160;SDS011;4615;51.340;8.288;2023-02-28T12:06:25;3.05;;;2.65;;
9160;SDS011;4615;51.340;8.288;2023-02-28T12:09:09;3.15;;;2.70;;
9160;SDS011;4615;51.340;8.288;2023-02-28T12:11:45;3.67;;;2.80;;
9160;SDS011;4615;51.340;8.288;2023-02-28T12:14:19;3.42;;;2.90;;
9160;SDS011;4615;51.340;8.288;2023-02-28T12:16:50;4.20;;;3.00;;
9160;SDS011;4615;51.340;8.288;2023-02-28T12:19:20;3.10;;;2.60;;
9160;SDS011;4615;51.340;8.288;2023-02-28T12:21:50;3.22;;;2.60;;
9160;SDS011;4615;51.340;8.288;2023-02-28T12:24:26;3.03;;;2.80;;
9160;SDS011;4615;51.340;8.288;2023-02-28T12:26:55;4.40;;;3.30;;
9160;SDS011;4615;51.340;8.288;2023-02-28T12:29:23;4.30;;;3.30;;
9160;SDS011;4615;51.340;8.288;2023-02-28T12:31:52;3.80;;;3.10;;
9160;SDS011;4615;51.340;8.288;2023-02-28T12:34:20;3.90;;;3.30;;
9160;SDS011;4615;51.340;8.288;2023-02-28T12:36:48;4.38;;;3.50;;
9160;SDS011;4615;51.340;8.288;2023-02-28T12:39:16;4.05;;;3.10;;
9160;SDS011;4615;51.340;8.288;2023-02-28T12:41:45;3.72;;;2.95;;
9160;SDS011;4615;51.340;8.288;2023-02-28T12:44:15;5.07;;;3.87;;
9160;SDS011;4615;51.340;8.288;2023-02-28T12:46:45;3.95;;;3.55;;
9160;SDS011;4615;51.340;8.288;2023-02-28T12:49:15;4.72;;;3.70;;
9160;SDS011;4615;51.340;8.288;2023-02-28T12:51:42;3.15;;;2.85;;
9160;SDS011;4615;51.340;8.288;2023-02-28T12:54:11;3.88;;;3.00;;
9160;SDS011;4615;51.340;8.288;2023-02-28T12:56:42;4.22;;;2.72;;
9160;SDS011;4615;51.340;8.288;2023-02-28T12:59:11;3.70;;;3.10;;
9160;SDS011;4615;51.340;8.288;2023-02-28T13:01:45;3.60;;;2.63;;
9160;SDS011;4615;51.340;8.288;2023-02-28T13:07:03;4.17;;;3.57;;
9160;SDS011;4615;51.340;8.288;2023-02-28T13:09:31;3.78;;;3.33;;
9160;SDS011;4615;51.340;8.288;2023-02-28T13:11:58;3.60;;;3.13;;
9160;SDS011;4615;51.340;8.288;2023-02-28T13:14:26;5.88;;;5.20;;
9160;SDS011;4615;51.340;8.288;2023-02-28T13:16:59;4.72;;;3.13;;
9160;SDS011;4615;51.340;8.288;2023-02-28T13:19:27;4.22;;;3.80;;
9160;SDS011;4615;51.340;8.288;2023-02-28T13:21:54;4.38;;;3.10;;
9160;SDS011;4615;51.340;8.288;2023-02-28T13:24:36;3.60;;;3.30;;
9160;SDS011;4615;51.340;8.288;2023-02-28T13:27:22;5.20;;;4.63;;
9160;SDS011;4615;51.340;8.288;2023-02-28T13:29:50;4.97;;;3.50;;
9160;SDS011;4615;51.340;8.288;2023-02-28T13:38:15;5.03;;;4.22;;
9160;SDS011;4615;51.340;8.288;2023-02-28T13:40:41;4.47;;;3.92;;
9160;SDS011;4615;51.340;8.288;2023-02-28T13:43:08;3.50;;;3.20;;
9160;SDS011;4615;51.340;8.288;2023-02-28T13:45:35;3.53;;;3.22;;
9160;SDS011;4615;51.340;8.288;2023-02-28T13:48:04;4.22;;;3.22;;
9160;SDS011;4615;51.340;8.288;2023-02-28T13:50:34;3.78;;;3.30;;
9160;SDS011;4615;51.340;8.288;2023-02-28T13:55:59;3.92;;;3.30;;
9160;SDS011;4615;51.340;8.288;2023-02-28T13:58:33;4.97;;;3.70;;
9160;SDS011;4615;51.340;8.288;2023-02-28T14:01:06;3.95;;;3.42;;
9160;SDS011;4615;51.340;8.288;2023-02-28T14:03:37;3.88;;;3.47;;
9160;SDS011;4615;51.340;8.288;2023-02-28T14:06:07;3.70;;;3.40;;
9160;SDS011;4615;51.340;8.288;2023-02-28T14:08:35;3.72;;;3.42;;
9160;SDS011;4615;51.340;8.288;2023-02-28T14:11:04;3.85;;;3.28;;
9160;SDS011;4615;51.340;8.288;2023-02-28T14:13:38;3.90;;;3.20;;
9160;SDS011;4615;51.340;8.288;2023-02-28T14:16:09;5.10;;;3.60;;
9160;SDS011;4615;51.340;8.288;2023-02-28T14:18:37;4.05;;;3.58;;
9160;SDS011;4615;51.340;8.288;2023-02-28T14:21:09;3.97;;;3.58;;
9160;SDS011;4615;51.340;8.288;2023-02-28T14:23:40;3.88;;;3.47;;
9160;SDS011;4615;51.340;8.288;2023-02-28T14:26:13;3.83;;;3.40;;
9160;SDS011;4615;51.340;8.288;2023-02-28T14:28:46;6.05;;;3.90;;
9160;SDS011;4615;51.340;8.288;2023-02-28T14:31:17;14.50;;;4.80;;
9160;SDS011;4615;51.340;8.288;2023-02-28T14:36:26;5.30;;;3.80;;
9160;SDS011;4615;51.340;8.288;2023-02-28T14:38:55;5.75;;;3.80;;
9160;SDS011;4615;51.340;8.288;2023-02-28T14:41:29;4.68;;;3.47;;
9160;SDS011;4615;51.340;8.288;2023-02-28T14:43:57;4.10;;;3.70;;
9160;SDS011;4615;51.340;8.288;2023-02-28T14:46:25;4.13;;;3.60;;
9160;SDS011;4615;51.340;8.288;2023-02-28T14:48:52;3.80;;;3.50;;
9160;SDS011;4615;51.340;8.288;2023-02-28T14:51:20;5.45;;;3.67;;
9160;SDS011;4615;51.340;8.288;2023-02-28T14:53:48;3.60;;;3.30;;
9160;SDS011;4615;51.340;8.288;2023-02-28T14:56:19;4.28;;;3.50;;
9160;SDS011;4615;51.340;8.288;2023-02-28T14:58:52;3.90;;;3.50;;
9160;SDS011;4615;51.340;8.288;2023-02-28T15:01:19;4.80;;;4.40;;
9160;SDS011;4615;51.340;8.288;2023-02-28T15:03:46;5.50;;;4.70;;
9160;SDS011;4615;51.340;8.288;2023-02-28T15:06:13;4.55;;;4.13;;
9160;SDS011;4615;51.340;8.288;2023-02-28T15:08:40;4.75;;;3.95;;
9160;SDS011;4615;51.340;8.288;2023-02-28T15:11:07;4.20;;;3.45;;
9160;SDS011;4615;51.340;8.288;2023-02-28T15:13:36;4.13;;;3.70;;
9160;SDS011;4615;51.340;8.288;2023-02-28T15:16:05;3.95;;;3.55;;
9160;SDS011;4615;51.340;8.288;2023-02-28T15:18:33;4.00;;;3.60;;
9160;SDS011;4615;51.340;8.288;2023-02-28T15:21:03;4.15;;;3.75;;
9160;SDS011;4615;51.340;8.288;2023-02-28T15:23:30;5.10;;;4.55;;
9160;SDS011;4615;51.340;8.288;2023-02-28T15:25:57;4.43;;;3.80;;
9160;SDS011;4615;51.340;8.288;2023-02-28T15:28:24;5.00;;;3.78;;
9160;SDS011;4615;51.340;8.288;2023-02-28T15:30:53;3.90;;;3.50;;
9160;SDS011;4615;51.340;8.288;2023-02-28T15:33:22;4.60;;;3.90;;
9160;SDS011;4615;51.340;8.288;2023-02-28T15:35:49;4.20;;;3.80;;
9160;SDS011;4615;51.340;8.288;2023-02-28T15:38:16;4.53;;;3.63;;
9160;SDS011;4615;51.340;8.288;2023-02-28T15:40:44;4.07;;;3.60;;
9160;SDS011;4615;51.340;8.288;2023-02-28T15:43:18;4.18;;;3.78;;
9160;SDS011;4615;51.340;8.288;2023-02-28T15:45:49;5.35;;;3.70;;
9160;SDS011;4615;51.340;8.288;2023-02-28T15:48:17;4.32;;;3.90;;